CheckWX is a tool to help pilots better visualize weather data.  It is not intended as a substitute for an official pre-flight weather briefing.

15:39:02 UTC

KELY TAF
Ely Arpt / Yelland Field / Airport
Ely, Nevada, USA
KELY 241144Z 2412/2512 16006KT P6SM SKC FM241800 23013G23KT P6SM FEW130 SCT220 FM242200 24012G25KT P6SM FEW090 BKN130 BKN200 FM250300 23006KT P6SM FEW100 BKN150 BKN200 FM250700 18007KT P6SM FEW200

Jun-24@
12:00 UTC

Jun-24 @ 12:00 UTC

Jun-24@
18:00 UTC

Jun-24 @ 18:00 UTC

KELY 241144Z 2412/2512 16006KT P6SM SKC
Wind
  • 160° at 6 KTS
Cloud Levels
  • Clear skies

Jun-24@
18:00 UTC

Jun-24 @ 18:00 UTC

Jun-24@
22:00 UTC

Jun-24 @ 22:00 UTC

FM241800 23013G23KT P6SM FEW130 SCT220

From

From Standard forecast or significant change

Wind
  • 230° at 13 KTS
  • {Gusting to 23 KTS
Cloud Levels
  • Few at 13,000' AGL
  • Scattered at 22,000' AGL

Jun-24@
22:00 UTC

Jun-24 @ 22:00 UTC

Jun-25@
03:00 UTC

Jun-25 @ 03:00 UTC

FM242200 24012G25KT P6SM FEW090 BKN130 BKN200

From

From Standard forecast or significant change

Wind
  • 240° at 12 KTS
  • {Gusting to 25 KTS
Cloud Levels
  • Few at 9,000' AGL
  • Broken at 13,000' AGL
  • Broken at 20,000' AGL

Jun-25@
03:00 UTC

Jun-25 @ 03:00 UTC

Jun-25@
07:00 UTC

Jun-25 @ 07:00 UTC

FM250300 23006KT P6SM FEW100 BKN150 BKN200

From

From Standard forecast or significant change

Wind
  • 230° at 6 KTS
Cloud Levels
  • Few at 10,000' AGL
  • Broken at 15,000' AGL
  • Broken at 20,000' AGL

Jun-25@
07:00 UTC

Jun-25 @ 07:00 UTC

Jun-25@
12:00 UTC

Jun-25 @ 12:00 UTC

FM250700 18007KT P6SM FEW200

From

From Standard forecast or significant change

Wind
  • 180° at 7 KTS
Cloud Levels
  • Few at 20,000' AGL